sensor_id;sensor_type;location;lat;lon;timestamp;temperature;humidity
7564;DHT22;3823;53.586;10.040;2023-03-01T00:00:12;4.40;1.00
7564;DHT22;3823;53.586;10.040;2023-03-01T00:02:38;4.30;1.00
7564;DHT22;3823;53.586;10.040;2023-03-01T00:05:04;4.30;1.00
7564;DHT22;3823;53.586;10.040;2023-03-01T00:07:29;4.30;1.00
7564;DHT22;3823;53.586;10.040;2023-03-01T00:09:55;4.20;1.00
7564;DHT22;3823;53.586;10.040;2023-03-01T00:12:20;4.20;1.00
7564;DHT22;3823;53.586;10.040;2023-03-01T00:14:46;4.30;1.00
7564;DHT22;3823;53.586;10.040;2023-03-01T00:17:11;4.30;1.00
7564;DHT22;3823;53.586;10.040;2023-03-01T00:19:37;4.30;1.00
7564;DHT22;3823;53.586;10.040;2023-03-01T00:22:03;4.30;1.00
7564;DHT22;3823;53.586;10.040;2023-03-01T00:24:28;4.20;1.00
7564;DHT22;3823;53.586;10.040;2023-03-01T00:26:54;4.20;1.00
7564;DHT22;3823;53.586;10.040;2023-03-01T00:29:24;4.20;1.00
7564;DHT22;3823;53.586;10.040;2023-03-01T00:31:50;4.10;1.00
7564;DHT22;3823;53.586;10.040;2023-03-01T00:34:15;4.10;1.00
7564;DHT22;3823;53.586;10.040;2023-03-01T00:36:41;4.10;1.00
7564;DHT22;3823;53.586;10.040;2023-03-01T00:39:11;4.20;1.00
7564;DHT22;3823;53.586;10.040;2023-03-01T00:41:36;4.20;1.00
7564;DHT22;3823;53.586;10.040;2023-03-01T00:44:02;4.20;1.00
7564;DHT22;3823;53.586;10.040;2023-03-01T00:46:28;4.30;1.00
7564;DHT22;3823;53.586;10.040;2023-03-01T00:48:55;4.20;1.00
7564;DHT22;3823;53.586;10.040;2023-03-01T00:51:24;4.20;1.00
7564;DHT22;3823;53.586;10.040;2023-03-01T00:53:52;4.10;1.00
7564;DHT22;3823;53.586;10.040;2023-03-01T00:56:18;4.10;1.00
7564;DHT22;3823;53.586;10.040;2023-03-01T00:58:44;4.00;1.00
7564;DHT22;3823;53.586;10.040;2023-03-01T01:01:16;4.00;1.00
7564;DHT22;3823;53.586;10.040;2023-03-01T01:03:54;4.00;1.00
7564;DHT22;3823;53.586;10.040;2023-03-01T01:06:25;4.00;1.00
7564;DHT22;3823;53.586;10.040;2023-03-01T01:08:52;4.00;1.00
7564;DHT22;3823;53.586;10.040;2023-03-01T01:11:19;4.00;1.00
7564;DHT22;3823;53.586;10.040;2023-03-01T01:13:46;4.00;1.00
7564;DHT22;3823;53.586;10.040;2023-03-01T01:16:12;3.90;1.00
7564;DHT22;3823;53.586;10.040;2023-03-01T01:18:37;3.90;1.00
7564;DHT22;3823;53.586;10.040;2023-03-01T01:21:08;3.90;1.00
7564;DHT22;3823;53.586;10.040;2023-03-01T01:23:34;3.90;1.00
7564;DHT22;3823;53.586;10.040;2023-03-01T01:26:11;3.80;1.00
7564;DHT22;3823;53.586;10.040;2023-03-01T01:28:38;3.80;1.00
7564;DHT22;3823;53.586;10.040;2023-03-01T01:31:04;3.80;1.00
7564;DHT22;3823;53.586;10.040;2023-03-01T01:33:30;3.80;1.00
7564;DHT22;3823;53.586;10.040;2023-03-01T01:35:56;3.80;1.00
7564;DHT22;3823;53.586;10.040;2023-03-01T01:38:21;3.80;1.00
7564;DHT22;3823;53.586;10.040;2023-03-01T01:40:48;3.90;1.00
7564;DHT22;3823;53.586;10.040;2023-03-01T01:43:29;3.80;1.00
7564;DHT22;3823;53.586;10.040;2023-03-01T01:46:10;3.80;1.00
7564;DHT22;3823;53.586;10.040;2023-03-01T01:48:47;3.80;1.00
7564;DHT22;3823;53.586;10.040;2023-03-01T01:51:19;3.90;1.00
7564;DHT22;3823;53.586;10.040;2023-03-01T01:53:48;3.80;1.00
7564;DHT22;3823;53.586;10.040;2023-03-01T01:56:17;3.90;1.00
7564;DHT22;3823;53.586;10.040;2023-03-01T01:58:44;3.90;1.00
7564;DHT22;3823;53.586;10.040;2023-03-01T02:01:12;3.90;1.00
7564;DHT22;3823;53.586;10.040;2023-03-01T02:03:39;4.00;1.00
7564;DHT22;3823;53.586;10.040;2023-03-01T02:06:29;3.90;1.00
7564;DHT22;3823;53.586;10.040;2023-03-01T02:09:02;4.00;1.00
7564;DHT22;3823;53.586;10.040;2023-03-01T02:11:31;4.10;1.00
7564;DHT22;3823;53.586;10.040;2023-03-01T02:13:56;4.10;1.00
7564;DHT22;3823;53.586;10.040;2023-03-01T02:16:22;4.00;1.00
7564;DHT22;3823;53.586;10.040;2023-03-01T02:18:49;4.00;1.00
7564;DHT22;3823;53.586;10.040;2023-03-01T02:21:38;4.00;1.00
7564;DHT22;3823;53.586;10.040;2023-03-01T02:24:28;3.90;1.00
7564;DHT22;3823;53.586;10.040;2023-03-01T02:26:57;3.90;1.00
7564;DHT22;3823;53.586;10.040;2023-03-01T02:29:24;3.90;1.00
7564;DHT22;3823;53.586;10.040;2023-03-01T02:31:52;3.90;1.00
7564;DHT22;3823;53.586;10.040;2023-03-01T02:34:23;3.90;1.00
7564;DHT22;3823;53.586;10.040;2023-03-01T02:37:03;3.90;1.00
7564;DHT22;3823;53.586;10.040;2023-03-01T02:39:42;3.90;1.00
7564;DHT22;3823;53.586;10.040;2023-03-01T02:42:13;3.90;1.00
7564;DHT22;3823;53.586;10.040;2023-03-01T02:44:40;3.90;1.00
7564;DHT22;3823;53.586;10.040;2023-03-01T02:47:05;3.90;1.00
7564;DHT22;3823;53.586;10.040;2023-03-01T02:49:34;3.90;1.00
7564;DHT22;3823;53.586;10.040;2023-03-01T02:52:16;3.90;1.00
7564;DHT22;3823;53.586;10.040;2023-03-01T02:57:31;3.90;1.00
7564;DHT22;3823;53.586;10.040;2023-03-01T02:59:59;3.90;1.00
7564;DHT22;3823;53.586;10.040;2023-03-01T03:02:30;3.90;1.00
7564;DHT22;3823;53.586;10.040;2023-03-01T03:05:09;3.90;1.00
7564;DHT22;3823;53.586;10.040;2023-03-01T03:07:36;3.90;1.00
7564;DHT22;3823;53.586;10.040;2023-03-01T03:10:04;3.90;1.00
7564;DHT22;3823;53.586;10.040;2023-03-01T03:12:30;3.90;1.00
7564;DHT22;3823;53.586;10.040;2023-03-01T03:14:56;3.80;1.00
7564;DHT22;3823;53.586;10.040;2023-03-01T03:17:21;3.80;1.00
7564;DHT22;3823;53.586;10.040;2023-03-01T03:19:47;3.80;1.00
7564;DHT22;3823;53.586;10.040;2023-03-01T03:22:13;3.80;1.00
7564;DHT22;3823;53.586;10.040;2023-03-01T03:24:38;3.90;1.00
7564;DHT22;3823;53.586;10.040;2023-03-01T03:27:05;4.00;1.00
7564;DHT22;3823;53.586;10.040;2023-03-01T03:29:31;4.00;1.00
7564;DHT22;3823;53.586;10.040;2023-03-01T03:31:57;4.00;1.00
7564;DHT22;3823;53.586;10.040;2023-03-01T03:34:23;4.00;1.00
7564;DHT22;3823;53.586;10.040;2023-03-01T03:36:53;4.10;1.00
7564;DHT22;3823;53.586;10.040;2023-03-01T03:39:25;4.30;1.00
7564;DHT22;3823;53.586;10.040;2023-03-01T03:41:52;4.40;1.00
7564;DHT22;3823;53.586;10.040;2023-03-01T03:44:18;4.40;1.00
7564;DHT22;3823;53.586;10.040;2023-03-01T03:46:43;4.50;1.00
7564;DHT22;3823;53.586;10.040;2023-03-01T03:49:09;4.50;1.00
7564;DHT22;3823;53.586;10.040;2023-03-01T03:51:34;4.60;1.00
7564;DHT22;3823;53.586;10.040;2023-03-01T03:54:00;4.60;1.00
7564;DHT22;3823;53.586;10.040;2023-03-01T03:56:25;4.50;1.00
7564;DHT22;3823;53.586;10.040;2023-03-01T03:58:52;4.50;1.00
7564;DHT22;3823;53.586;10.040;2023-03-01T04:01:18;4.60;1.00
7564;DHT22;3823;53.586;10.040;2023-03-01T04:03:43;4.60;1.00
7564;DHT22;3823;53.586;10.040;2023-03-01T04:06:13;4.60;1.00
7564;DHT22;3823;53.586;10.040;2023-03-01T04:08:39;4.60;1.00
7564;DHT22;3823;53.586;10.040;2023-03-01T04:11:05;4.60;1.00
7564;DHT22;3823;53.586;10.040;2023-03-01T04:13:51;4.70;1.00
7564;DHT22;3823;53.586;10.040;2023-03-01T04:16:18;4.70;1.00
7564;DHT22;3823;53.586;10.040;2023-03-01T04:18:44;4.70;1.00
7564;DHT22;3823;53.586;10.040;2023-03-01T04:21:09;4.80;1.00
7564;DHT22;3823;53.586;10.040;2023-03-01T04:23:37;4.80;1.00
7564;DHT22;3823;53.586;10.040;2023-03-01T04:26:03;4.80;1.00
7564;DHT22;3823;53.586;10.040;2023-03-01T04:28:40;4.80;1.00
7564;DHT22;3823;53.586;10.040;2023-03-01T04:31:16;4.80;1.00
7564;DHT22;3823;53.586;10.040;2023-03-01T04:33:43;4.80;1.00
7564;DHT22;3823;53.586;10.040;2023-03-01T04:36:10;4.80;1.00
7564;DHT22;3823;53.586;10.040;2023-03-01T04:38:37;4.70;1.00
7564;DHT22;3823;53.586;10.040;2023-03-01T04:41:05;4.70;1.00
7564;DHT22;3823;53.586;10.040;2023-03-01T04:43:31;4.80;1.00
7564;DHT22;3823;53.586;10.040;2023-03-01T04:46:06;4.80;1.00
7564;DHT22;3823;53.586;10.040;2023-03-01T04:48:35;4.80;1.00
7564;DHT22;3823;53.586;10.040;2023-03-01T04:51:01;4.80;1.00
7564;DHT22;3823;53.586;10.040;2023-03-01T04:53:27;4.70;1.00
7564;DHT22;3823;53.586;10.040;2023-03-01T04:55:56;4.60;1.00
7564;DHT22;3823;53.586;10.040;2023-03-01T04:58:23;4.60;1.00
7564;DHT22;3823;53.586;10.040;2023-03-01T05:00:49;4.60;1.00
7564;DHT22;3823;53.586;10.040;2023-03-01T05:03:15;4.50;1.00
7564;DHT22;3823;53.586;10.040;2023-03-01T05:05:44;4.40;1.00
7564;DHT22;3823;53.586;10.040;2023-03-01T05:08:10;4.50;1.00
7564;DHT22;3823;53.586;10.040;2023-03-01T05:10:44;4.50;1.00
7564;DHT22;3823;53.586;10.040;2023-03-01T05:13:11;4.40;1.00
7564;DHT22;3823;53.586;10.040;2023-03-01T05:15:39;4.40;1.00
7564;DHT22;3823;53.586;10.040;2023-03-01T05:18:05;4.40;1.00
7564;DHT22;3823;53.586;10.040;2023-03-01T05:20:37;4.40;1.00
7564;DHT22;3823;53.586;10.040;2023-03-01T05:23:03;4.40;1.00
7564;DHT22;3823;53.586;10.040;2023-03-01T05:25:32;4.40;1.00
7564;DHT22;3823;53.586;10.040;2023-03-01T05:27:59;4.50;1.00
7564;DHT22;3823;53.586;10.040;2023-03-01T05:30:24;4.50;1.00
7564;DHT22;3823;53.586;10.040;2023-03-01T05:32:50;4.50;1.00
7564;DHT22;3823;53.586;10.040;2023-03-01T05:35:21;4.50;1.00
7564;DHT22;3823;53.586;10.040;2023-03-01T05:37:48;4.50;1.00
7564;DHT22;3823;53.586;10.040;2023-03-01T05:40:17;4.50;1.00
7564;DHT22;3823;53.586;10.040;2023-03-01T05:42:54;4.50;1.00
7564;DHT22;3823;53.586;10.040;2023-03-01T05:45:20;4.50;1.00
7564;DHT22;3823;53.586;10.040;2023-03-01T05:47:48;4.50;1.00
7564;DHT22;3823;53.586;10.040;2023-03-01T05:50:17;4.50;1.00
7564;DHT22;3823;53.586;10.040;2023-03-01T05:52:49;4.60;1.00
7564;DHT22;3823;53.586;10.040;2023-03-01T05:55:16;4.60;1.00
7564;DHT22;3823;53.586;10.040;2023-03-01T05:57:42;4.60;1.00
7564;DHT22;3823;53.586;10.040;2023-03-01T06:00:09;4.60;1.00
7564;DHT22;3823;53.586;10.040;2023-03-01T06:02:35;4.60;1.00
7564;DHT22;3823;53.586;10.040;2023-03-01T06:05:00;4.50;1.00
7564;DHT22;3823;53.586;10.040;2023-03-01T06:07:26;4.50;1.00
7564;DHT22;3823;53.586;10.040;2023-03-01T06:09:51;4.50;1.00
7564;DHT22;3823;53.586;10.040;2023-03-01T06:12:17;4.50;1.00
7564;DHT22;3823;53.586;10.040;2023-03-01T06:14:42;4.50;1.00
7564;DHT22;3823;53.586;10.040;2023-03-01T06:17:08;4.50;1.00
7564;DHT22;3823;53.586;10.040;2023-03-01T06:19:33;4.50;1.00
7564;DHT22;3823;53.586;10.040;2023-03-01T06:21:59;4.50;1.00
7564;DHT22;3823;53.586;10.040;2023-03-01T06:24:24;4.50;1.00
7564;DHT22;3823;53.586;10.040;2023-03-01T06:26:50;4.50;1.00
7564;DHT22;3823;53.586;10.040;2023-03-01T06:29:17;4.60;1.00
7564;DHT22;3823;53.586;10.040;2023-03-01T06:31:43;4.50;1.00
7564;DHT22;3823;53.586;10.040;2023-03-01T06:34:08;4.50;1.00
7564;DHT22;3823;53.586;10.040;2023-03-01T06:36:36;4.50;1.00
7564;DHT22;3823;53.586;10.040;2023-03-01T06:39:01;4.50;1.00
7564;DHT22;3823;53.586;10.040;2023-03-01T06:41:27;4.40;1.00
7564;DHT22;3823;53.586;10.040;2023-03-01T06:43:53;4.40;1.00
7564;DHT22;3823;53.586;10.040;2023-03-01T06:46:19;4.50;1.00
7564;DHT22;3823;53.586;10.040;2023-03-01T06:48:46;4.50;1.00
7564;DHT22;3823;53.586;10.040;2023-03-01T06:51:11;4.50;1.00
7564;DHT22;3823;53.586;10.040;2023-03-01T06:53:37;4.50;1.00
7564;DHT22;3823;53.586;10.040;2023-03-01T06:56:02;4.50;1.00
7564;DHT22;3823;53.586;10.040;2023-03-01T06:58:28;4.50;1.00
7564;DHT22;3823;53.586;10.040;2023-03-01T07:00:53;4.60;1.00
7564;DHT22;3823;53.586;10.040;2023-03-01T07:03:19;4.60;1.00
7564;DHT22;3823;53.586;10.040;2023-03-01T07:05:45;4.60;1.00
7564;DHT22;3823;53.586;10.040;2023-03-01T07:08:10;4.60;1.00
7564;DHT22;3823;53.586;10.040;2023-03-01T07:10:36;4.70;1.00
7564;DHT22;3823;53.586;10.040;2023-03-01T07:13:02;4.70;1.00
7564;DHT22;3823;53.586;10.040;2023-03-01T07:15:27;4.80;1.00
7564;DHT22;3823;53.586;10.040;2023-03-01T07:17:53;4.80;1.00
7564;DHT22;3823;53.586;10.040;2023-03-01T07:20:19;4.90;1.00
7564;DHT22;3823;53.586;10.040;2023-03-01T07:22:51;4.90;1.00
7564;DHT22;3823;53.586;10.040;2023-03-01T07:25:16;4.80;1.00
7564;DHT22;3823;53.586;10.040;2023-03-01T07:27:42;4.90;1.00
7564;DHT22;3823;53.586;10.040;2023-03-01T07:30:08;4.90;1.00
7564;DHT22;3823;53.586;10.040;2023-03-01T07:32:34;4.90;1.00
7564;DHT22;3823;53.586;10.040;2023-03-01T07:35:00;4.90;1.00
7564;DHT22;3823;53.586;10.040;2023-03-01T07:37:25;4.90;1.00
7564;DHT22;3823;53.586;10.040;2023-03-01T07:39:51;4.90;1.00
7564;DHT22;3823;53.586;10.040;2023-03-01T07:42:16;4.90;1.00
7564;DHT22;3823;53.586;10.040;2023-03-01T07:44:42;4.90;1.00
7564;DHT22;3823;53.586;10.040;2023-03-01T07:47:07;5.00;1.00
7564;DHT22;3823;53.586;10.040;2023-03-01T07:49:33;5.00;1.00
7564;DHT22;3823;53.586;10.040;2023-03-01T07:51:58;5.00;1.00
7564;DHT22;3823;53.586;10.040;2023-03-01T07:54:24;5.20;1.00
7564;DHT22;3823;53.586;10.040;2023-03-01T07:56:49;5.30;1.00
7564;DHT22;3823;53.586;10.040;2023-03-01T07:59:15;5.40;1.00
7564;DHT22;3823;53.586;10.040;2023-03-01T08:01:40;5.50;1.00
7564;DHT22;3823;53.586;10.040;2023-03-01T08:04:07;5.60;1.00
7564;DHT22;3823;53.586;10.040;2023-03-01T08:06:34;6.00;1.00
7564;DHT22;3823;53.586;10.040;2023-03-01T08:09:00;6.20;1.00
7564;DHT22;3823;53.586;10.040;2023-03-01T08:11:25;6.30;1.00
7564;DHT22;3823;53.586;10.040;2023-03-01T08:13:53;6.40;1.00
7564;DHT22;3823;53.586;10.040;2023-03-01T08:16:19;6.30;1.00
7564;DHT22;3823;53.586;10.040;2023-03-01T08:18:44;6.40;1.00
7564;DHT22;3823;53.586;10.040;2023-03-01T08:21:12;6.30;1.00
7564;DHT22;3823;53.586;10.040;2023-03-01T08:23:38;6.20;1.00
7564;DHT22;3823;53.586;10.040;2023-03-01T08:26:18;6.20;1.00
7564;DHT22;3823;53.586;10.040;2023-03-01T08:28:45;6.20;1.00
7564;DHT22;3823;53.586;10.040;2023-03-01T08:31:22;6.30;1.00
7564;DHT22;3823;53.586;10.040;2023-03-01T08:33:50;6.30;1.00
7564;DHT22;3823;53.586;10.040;2023-03-01T08:36:23;6.30;1.00
7564;DHT22;3823;53.586;10.040;2023-03-01T08:38:49;6.30;1.00
7564;DHT22;3823;53.586;10.040;2023-03-01T08:41:15;6.50;1.00
7564;DHT22;3823;53.586;10.040;2023-03-01T08:43:41;6.60;1.00
7564;DHT22;3823;53.586;10.040;2023-03-01T08:46:07;6.60;1.00
7564;DHT22;3823;53.586;10.040;2023-03-01T08:48:32;6.60;1.00
7564;DHT22;3823;53.586;10.040;2023-03-01T08:51:17;6.60;1.00
7564;DHT22;3823;53.586;10.040;2023-03-01T08:53:43;6.50;1.00
7564;DHT22;3823;53.586;10.040;2023-03-01T08:56:10;6.60;1.00
7564;DHT22;3823;53.586;10.040;2023-03-01T08:58:36;6.70;1.00
7564;DHT22;3823;53.586;10.040;2023-03-01T09:01:07;6.70;1.00
7564;DHT22;3823;53.586;10.040;2023-03-01T09:03:33;6.80;1.00
7564;DHT22;3823;53.586;10.040;2023-03-01T09:06:02;6.80;1.00
7564;DHT22;3823;53.586;10.040;2023-03-01T09:08:28;6.80;1.00
7564;DHT22;3823;53.586;10.040;2023-03-01T09:10:55;6.70;1.00
7564;DHT22;3823;53.586;10.040;2023-03-01T09:13:20;6.80;1.00
7564;DHT22;3823;53.586;10.040;2023-03-01T09:15:46;6.70;1.00
7564;DHT22;3823;53.586;10.040;2023-03-01T09:18:11;6.70;1.00
7564;DHT22;3823;53.586;10.040;2023-03-01T09:20:37;6.70;1.00
7564;DHT22;3823;53.586;10.040;2023-03-01T09:23:02;6.70;1.00
7564;DHT22;3823;53.586;10.040;2023-03-01T09:25:28;6.70;1.00
7564;DHT22;3823;53.586;10.040;2023-03-01T09:27:54;6.70;1.00
7564;DHT22;3823;53.586;10.040;2023-03-01T09:30:21;6.80;1.00
7564;DHT22;3823;53.586;10.040;2023-03-01T09:32:47;6.80;1.00
7564;DHT22;3823;53.586;10.040;2023-03-01T09:35:12;6.90;1.00
7564;DHT22;3823;53.586;10.040;2023-03-01T09:37:38;7.00;1.00
7564;DHT22;3823;53.586;10.040;2023-03-01T09:40:06;7.00;1.00
7564;DHT22;3823;53.586;10.040;2023-03-01T09:42:36;7.00;1.00
7564;DHT22;3823;53.586;10.040;2023-03-01T09:45:23;6.90;1.00
7564;DHT22;3823;53.586;10.040;2023-03-01T09:47:50;7.00;1.00
7564;DHT22;3823;53.586;10.040;2023-03-01T09:50:20;7.10;1.00
7564;DHT22;3823;53.586;10.040;2023-03-01T09:55:45;7.30;1.00
7564;DHT22;3823;53.586;10.040;2023-03-01T10:01:10;7.60;1.00
7564;DHT22;3823;53.586;10.040;2023-03-01T10:03:48;7.80;1.00
7564;DHT22;3823;53.586;10.040;2023-03-01T10:06:23;7.90;1.00
7564;DHT22;3823;53.586;10.040;2023-03-01T10:08:57;8.10;1.00
7564;DHT22;3823;53.586;10.040;2023-03-01T10:11:37;8.30;1.00
7564;DHT22;3823;53.586;10.040;2023-03-01T10:14:05;8.50;1.00
7564;DHT22;3823;53.586;10.040;2023-03-01T10:22:11;9.10;1.00
7564;DHT22;3823;53.586;10.040;2023-03-01T10:24:38;9.30;1.00
7564;DHT22;3823;53.586;10.040;2023-03-01T10:30:12;9.70;1.00
7564;DHT22;3823;53.586;10.040;2023-03-01T10:32:39;10.00;1.00
7564;DHT22;3823;53.586;10.040;2023-03-01T10:35:26;10.10;1.00
7564;DHT22;3823;53.586;10.040;2023-03-01T10:38:12;10.00;1.00
7564;DHT22;3823;53.586;10.040;2023-03-01T10:41:05;10.00;1.00
7564;DHT22;3823;53.586;10.040;2023-03-01T10:43:48;10.00;1.00
7564;DHT22;3823;53.586;10.040;2023-03-01T10:51:40;9.50;1.00
7564;DHT22;3823;53.586;10.040;2023-03-01T10:54:18;9.60;1.00
7564;DHT22;3823;53.586;10.040;2023-03-01T10:56:56;9.60;1.00
7564;DHT22;3823;53.586;10.040;2023-03-01T10:59:36;9.50;1.00
7564;DHT22;3823;53.586;10.040;2023-03-01T11:02:15;9.40;1.00
7564;DHT22;3823;53.586;10.040;2023-03-01T11:05:13;9.40;1.00
7564;DHT22;3823;53.586;10.040;2023-03-01T11:07:53;9.60;1.00
7564;DHT22;3823;53.586;10.040;2023-03-01T11:10:37;9.70;1.00
7564;DHT22;3823;53.586;10.040;2023-03-01T11:13:29;9.90;1.00
7564;DHT22;3823;53.586;10.040;2023-03-01T11:16:12;10.10;1.00
7564;DHT22;3823;53.586;10.040;2023-03-01T11:18:37;10.00;1.00
7564;DHT22;3823;53.586;10.040;2023-03-01T11:21:05;10.00;1.00
7564;DHT22;3823;53.586;10.040;2023-03-01T11:23:32;10.20;1.00
7564;DHT22;3823;53.586;10.040;2023-03-01T11:26:07;10.40;1.00
7564;DHT22;3823;53.586;10.040;2023-03-01T11:28:37;10.70;1.00
7564;DHT22;3823;53.586;10.040;2023-03-01T11:31:06;10.60;1.00
7564;DHT22;3823;53.586;10.040;2023-03-01T11:33:54;10.50;1.00
7564;DHT22;3823;53.586;10.040;2023-03-01T11:39:31;10.60;1.00
7564;DHT22;3823;53.586;10.040;2023-03-01T11:42:20;10.90;1.00
7564;DHT22;3823;53.586;10.040;2023-03-01T11:44:53;10.90;1.00
7564;DHT22;3823;53.586;10.040;2023-03-01T11:50:49;10.90;1.00
7564;DHT22;3823;53.586;10.040;2023-03-01T11:56:21;11.30;1.00
7564;DHT22;3823;53.586;10.040;2023-03-01T12:05:02;11.10;1.00
7564;DHT22;3823;53.586;10.040;2023-03-01T12:10:26;11.10;1.00
7564;DHT22;3823;53.586;10.040;2023-03-01T12:13:04;11.20;1.00
7564;DHT22;3823;53.586;10.040;2023-03-01T12:15:59;11.40;1.00
7564;DHT22;3823;53.586;10.040;2023-03-01T12:21:42;11.80;1.00
7564;DHT22;3823;53.586;10.040;2023-03-01T12:24:40;12.00;1.00
7564;DHT22;3823;53.586;10.040;2023-03-01T12:27:39;11.50;1.00
7564;DHT22;3823;53.586;10.040;2023-03-01T12:33:11;11.40;1.00
7564;DHT22;3823;53.586;10.040;2023-03-01T12:38:41;11.50;1.00
7564;DHT22;3823;53.586;10.040;2023-03-01T12:41:11;11.40;1.00
7564;DHT22;3823;53.586;10.040;2023-03-01T12:46:39;11.40;1.00
7564;DHT22;3823;53.586;10.040;2023-03-01T12:49:14;11.20;1.00
7564;DHT22;3823;53.586;10.040;2023-03-01T12:51:44;11.40;1.00
7564;DHT22;3823;53.586;10.040;2023-03-01T12:54:28;11.50;1.00
7564;DHT22;3823;53.586;10.040;2023-03-01T12:56:56;11.50;1.00
7564;DHT22;3823;53.586;10.040;2023-03-01T12:59:36;11.40;1.00
7564;DHT22;3823;53.586;10.040;2023-03-01T13:02:23;11.50;1.00
7564;DHT22;3823;53.586;10.040;2023-03-01T13:05:13;11.40;1.00
7564;DHT22;3823;53.586;10.040;2023-03-01T13:10:49;11.10;1.00
7564;DHT22;3823;53.586;10.040;2023-03-01T13:15:45;11.40;1.00
7564;DHT22;3823;53.586;10.040;2023-03-01T13:23:28;11.50;1.00
7564;DHT22;3823;53.586;10.040;2023-03-01T13:28:38;11.50;1.00
7564;DHT22;3823;53.586;10.040;2023-03-01T13:31:11;11.30;1.00
7564;DHT22;3823;53.586;10.040;2023-03-01T13:34:00;11.20;1.00
7564;DHT22;3823;53.586;10.040;2023-03-01T13:50:03;11.20;1.00
7564;DHT22;3823;53.586;10.040;2023-03-01T13:52:49;11.10;1.00
7564;DHT22;3823;53.586;10.040;2023-03-01T13:55:36;11.10;1.00
7564;DHT22;3823;53.586;10.040;2023-03-01T13:58:13;11.20;1.00
7564;DHT22;3823;53.586;10.040;2023-03-01T14:00:40;11.10;1.00
7564;DHT22;3823;53.586;10.040;2023-03-01T14:03:19;11.00;1.00
7564;DHT22;3823;53.586;10.040;2023-03-01T14:06:07;10.90;1.00
7564;DHT22;3823;53.586;10.040;2023-03-01T14:08:35;10.80;1.00
7564;DHT22;3823;53.586;10.040;2023-03-01T14:13:55;10.90;1.00
7564;DHT22;3823;53.586;10.040;2023-03-01T14:16:30;11.00;1.00
7564;DHT22;3823;53.586;10.040;2023-03-01T14:19:15;11.20;1.00
7564;DHT22;3823;53.586;10.040;2023-03-01T14:21:46;11.20;1.00
7564;DHT22;3823;53.586;10.040;2023-03-01T14:24:18;11.10;1.00
7564;DHT22;3823;53.586;10.040;2023-03-01T14:26:45;11.10;1.00
7564;DHT22;3823;53.586;10.040;2023-03-01T14:29:36;11.10;1.00
7564;DHT22;3823;53.586;10.040;2023-03-01T14:32:21;11.10;1.00
7564;DHT22;3823;53.586;10.040;2023-03-01T14:34:49;11.00;1.00
7564;DHT22;3823;53.586;10.040;2023-03-01T14:37:32;11.10;1.00
7564;DHT22;3823;53.586;10.040;2023-03-01T14:39:59;11.10;1.00
7564;DHT22;3823;53.586;10.040;2023-03-01T14:42:31;10.90;1.00
7564;DHT22;3823;53.586;10.040;2023-03-01T14:45:00;10.90;1.00
7564;DHT22;3823;53.586;10.040;2023-03-01T14:47:35;10.80;1.00
7564;DHT22;3823;53.586;10.040;2023-03-01T14:50:19;10.80;1.00
7564;DHT22;3823;53.586;10.040;2023-03-01T14:52:48;10.70;1.00
7564;DHT22;3823;53.586;10.040;2023-03-01T14:55:21;10.70;1.00
7564;DHT22;3823;53.586;10.040;2023-03-01T14:57:51;10.70;1.00
7564;DHT22;3823;53.586;10.040;2023-03-01T15:00:23;10.60;1.00
7564;DHT22;3823;53.586;10.040;2023-03-01T15:02:51;10.50;1.00
7564;DHT22;3823;53.586;10.040;2023-03-01T15:05:24;10.50;1.00
7564;DHT22;3823;53.586;10.040;2023-03-01T15:07:51;10.50;1.00
7564;DHT22;3823;53.586;10.040;2023-03-01T15:10:23;10.50;1.00
7564;DHT22;3823;53.586;10.040;2023-03-01T15:12:50;10.50;1.00
7564;DHT22;3823;53.586;10.040;2023-03-01T15:15:32;10.40;1.00
7564;DHT22;3823;53.586;10.040;2023-03-01T15:18:16;10.40;1.00
7564;DHT22;3823;53.586;10.040;2023-03-01T15:20:42;10.30;1.00
7564;DHT22;3823;53.586;10.040;2023-03-01T15:25:48;10.50;1.00
7564;DHT22;3823;53.586;10.040;2023-03-01T15:28:48;10.40;1.00
7564;DHT22;3823;53.586;10.040;2023-03-01T15:31:34;10.40;1.00
7564;DHT22;3823;53.586;10.040;2023-03-01T15:34:24;10.40;1.00
7564;DHT22;3823;53.586;10.040;2023-03-01T15:36:52;10.50;1.00
7564;DHT22;3823;53.586;10.040;2023-03-01T15:39:35;10.50;1.00
7564;DHT22;3823;53.586;10.040;2023-03-01T15:47:50;10.10;1.00
7564;DHT22;3823;53.586;10.040;2023-03-01T15:50:26;10.10;1.00
7564;DHT22;3823;53.586;10.040;2023-03-01T15:52:53;10.20;1.00
7564;DHT22;3823;53.586;10.040;2023-03-01T15:55:24;10.20;1.00
7564;DHT22;3823;53.586;10.040;2023-03-01T15:58:14;10.20;1.00
7564;DHT22;3823;53.586;10.040;2023-03-01T16:00:41;10.10;1.00
7564;DHT22;3823;53.586;10.040;2023-03-01T16:03:09;10.10;1.00
7564;DHT22;3823;53.586;10.040;2023-03-01T16:05:37;9.90;1.00
7564;DHT22;3823;53.586;10.040;2023-03-01T16:08:04;10.00;1.00
7564;DHT22;3823;53.586;10.040;2023-03-01T16:10:31;9.90;1.00
7564;DHT22;3823;53.586;10.040;2023-03-01T16:12:57;9.80;1.00
7564;DHT22;3823;53.586;10.040;2023-03-01T16:15:33;9.90;1.00
7564;DHT22;3823;53.586;10.040;2023-03-01T16:18:00;9.90;1.00
7564;DHT22;3823;53.586;10.040;2023-03-01T16:20:27;9.80;1.00
7564;DHT22;3823;53.586;10.040;2023-03-01T16:22:53;9.70;1.00
7564;DHT22;3823;53.586;10.040;2023-03-01T16:25:20;9.70;1.00
7564;DHT22;3823;53.586;10.040;2023-03-01T16:27:47;9.60;1.00
7564;DHT22;3823;53.586;10.040;2023-03-01T16:30:15;9.50;1.00
7564;DHT22;3823;53.586;10.040;2023-03-01T16:32:43;9.40;1.00
7564;DHT22;3823;53.586;10.040;2023-03-01T16:35:10;9.30;1.00
7564;DHT22;3823;53.586;10.040;2023-03-01T16:37:36;9.30;1.00
7564;DHT22;3823;53.586;10.040;2023-03-01T16:40:03;9.30;1.00
7564;DHT22;3823;53.586;10.040;2023-03-01T16:42:36;9.30;1.00
7564;DHT22;3823;53.586;10.040;2023-03-01T16:45:02;9.30;1.00
7564;DHT22;3823;53.586;10.040;2023-03-01T16:47:28;9.10;1.00
7564;DHT22;3823;53.586;10.040;2023-03-01T16:49:54;9.10;1.00
7564;DHT22;3823;53.586;10.040;2023-03-01T16:52:21;9.00;1.00
7564;DHT22;3823;53.586;10.040;2023-03-01T16:54:47;8.90;1.00
7564;DHT22;3823;53.586;10.040;2023-03-01T16:57:13;8.90;1.00
7564;DHT22;3823;53.586;10.040;2023-03-01T16:59:39;8.80;1.00
7564;DHT22;3823;53.586;10.040;2023-03-01T17:02:08;8.80;1.00
7564;DHT22;3823;53.586;10.040;2023-03-01T17:04:35;8.70;1.00
7564;DHT22;3823;53.586;10.040;2023-03-01T17:07:00;8.50;1.00
7564;DHT22;3823;53.586;10.040;2023-03-01T17:09:26;8.40;1.00
7564;DHT22;3823;53.586;10.040;2023-03-01T17:11:51;8.50;1.00
7564;DHT22;3823;53.586;10.040;2023-03-01T17:14:17;8.50;1.00
7564;DHT22;3823;53.586;10.040;2023-03-01T17:16:43;8.40;1.00
7564;DHT22;3823;53.586;10.040;2023-03-01T17:19:10;8.40;1.00
7564;DHT22;3823;53.586;10.040;2023-03-01T17:21:36;8.30;1.00
7564;DHT22;3823;53.586;10.040;2023-03-01T17:24:01;8.30;1.00
7564;DHT22;3823;53.586;10.040;2023-03-01T17:26:28;8.20;1.00
7564;DHT22;3823;53.586;10.040;2023-03-01T17:28:55;8.30;1.00
7564;DHT22;3823;53.586;10.040;2023-03-01T17:31:22;8.10;1.00
7564;DHT22;3823;53.586;10.040;2023-03-01T17:33:47;7.70;1.00
7564;DHT22;3823;53.586;10.040;2023-03-01T17:36:14;7.70;1.00
7564;DHT22;3823;53.586;10.040;2023-03-01T17:38:40;7.50;1.00
7564;DHT22;3823;53.586;10.040;2023-03-01T17:41:05;7.50;1.00
7564;DHT22;3823;53.586;10.040;2023-03-01T17:43:31;7.30;1.00
7564;DHT22;3823;53.586;10.040;2023-03-01T17:45:59;7.40;1.00
7564;DHT22;3823;53.586;10.040;2023-03-01T17:48:24;7.30;1.00
7564;DHT22;3823;53.586;10.040;2023-03-01T17:50:50;7.30;1.00
7564;DHT22;3823;53.586;10.040;2023-03-01T17:53:16;7.10;1.00
7564;DHT22;3823;53.586;10.040;2023-03-01T17:55:43;7.00;1.00
7564;DHT22;3823;53.586;10.040;2023-03-01T17:58:11;6.90;1.00
7564;DHT22;3823;53.586;10.040;2023-03-01T18:00:37;6.80;1.00
7564;DHT22;3823;53.586;10.040;2023-03-01T18:03:03;6.70;1.00